sensor_id;sensor_type;location;lat;lon;timestamp;pressure;altitude;pressure_sealevel;temperature;humidity
47897;BME280;39629;51.400;5.494;2023-09-07T00:03:21;101665.47;;;15.27;100.00
47897;BME280;39629;51.400;5.494;2023-09-07T00:08:23;101661.97;;;15.21;100.00
47897;BME280;39629;51.400;5.494;2023-09-07T00:13:26;101661.31;;;14.89;100.00
47897;BME280;39629;51.400;5.494;2023-09-07T00:18:28;101663.94;;;14.91;100.00
47897;BME280;39629;51.400;5.494;2023-09-07T00:23:29;101662.19;;;14.87;100.00
47897;BME280;39629;51.400;5.494;2023-09-07T00:28:32;101654.41;;;14.67;100.00
47897;BME280;39629;51.400;5.494;2023-09-07T00:33:33;101653.59;;;14.57;100.00
47897;BME280;39629;51.400;5.494;2023-09-07T00:38:35;101655.31;;;14.62;100.00
47897;BME280;39629;51.400;5.494;2023-09-07T00:43:38;101645.69;;;14.52;100.00
47897;BME280;39629;51.400;5.494;2023-09-07T00:48:41;101640.38;;;14.49;100.00
47897;BME280;39629;51.400;5.494;2023-09-07T00:53:43;101636.00;;;14.46;100.00
47897;BME280;39629;51.400;5.494;2023-09-07T00:58:45;101649.28;;;14.39;100.00
47897;BME280;39629;51.400;5.494;2023-09-07T01:03:47;101648.41;;;14.38;100.00
47897;BME280;39629;51.400;5.494;2023-09-07T01:08:49;101647.50;;;14.44;100.00
47897;BME280;39629;51.400;5.494;2023-09-07T01:13:54;101643.97;;;14.40;100.00
47897;BME280;39629;51.400;5.494;2023-09-07T01:18:55;101649.31;;;14.36;100.00
47897;BME280;39629;51.400;5.494;2023-09-07T01:23:58;101644.94;;;14.28;100.00
47897;BME280;39629;51.400;5.494;2023-09-07T01:29:00;101640.50;;;14.32;100.00
47897;BME280;39629;51.400;5.494;2023-09-07T01:34:01;101638.75;;;14.26;100.00
47897;BME280;39629;51.400;5.494;2023-09-07T01:39:04;101637.09;;;14.07;100.00
47897;BME280;39629;51.400;5.494;2023-09-07T01:44:06;101631.84;;;13.97;100.00
47897;BME280;39629;51.400;5.494;2023-09-07T01:49:08;101629.22;;;13.94;100.00
47897;BME280;39629;51.400;5.494;2023-09-07T01:54:12;101623.91;;;13.84;100.00
47897;BME280;39629;51.400;5.494;2023-09-07T01:59:13;101621.28;;;13.91;100.00
47897;BME280;39629;51.400;5.494;2023-09-07T02:04:15;101625.72;;;13.78;100.00
47897;BME280;39629;51.400;5.494;2023-09-07T02:09:17;101630.16;;;13.66;100.00
47897;BME280;39629;51.400;5.494;2023-09-07T02:14:19;101631.03;;;13.72;100.00
47897;BME280;39629;51.400;5.494;2023-09-07T02:19:20;101629.28;;;13.67;100.00
47897;BME280;39629;51.400;5.494;2023-09-07T02:24:24;101623.97;;;13.71;100.00
47897;BME280;39629;51.400;5.494;2023-09-07T02:29:26;101623.97;;;13.71;100.00
47897;BME280;39629;51.400;5.494;2023-09-07T02:34:27;101622.22;;;13.67;100.00
47897;BME280;39629;51.400;5.494;2023-09-07T02:39:30;101621.38;;;13.54;100.00
47897;BME280;39629;51.400;5.494;2023-09-07T02:44:32;101628.44;;;13.55;100.00
47897;BME280;39629;51.400;5.494;2023-09-07T02:49:35;101623.13;;;13.61;100.00
47897;BME280;39629;51.400;5.494;2023-09-07T02:54:38;101627.56;;;13.49;100.00
47897;BME280;39629;51.400;5.494;2023-09-07T02:59:39;101625.78;;;13.49;100.00
47897;BME280;39629;51.400;5.494;2023-09-07T03:04:41;101618.75;;;13.50;100.00
47897;BME280;39629;51.400;5.494;2023-09-07T03:09:44;101619.59;;;13.59;100.00
47897;BME280;39629;51.400;5.494;2023-09-07T03:14:46;101617.84;;;13.49;100.00
47897;BME280;39629;51.400;5.494;2023-09-07T03:19:50;101622.25;;;13.50;100.00
47897;BME280;39629;51.400;5.494;2023-09-07T03:24:53;101619.63;;;13.41;100.00
47897;BME280;39629;51.400;5.494;2023-09-07T03:29:55;101615.25;;;13.41;100.00
47897;BME280;39629;51.400;5.494;2023-09-07T03:34:56;101612.59;;;13.41;100.00
47897;BME280;39629;51.400;5.494;2023-09-07T03:39:59;101608.16;;;13.43;100.00
47897;BME280;39629;51.400;5.494;2023-09-07T03:45:01;101626.69;;;13.42;100.00
47897;BME280;39629;51.400;5.494;2023-09-07T03:50:04;101632.88;;;13.33;100.00
47897;BME280;39629;51.400;5.494;2023-09-07T03:55:08;101627.59;;;13.35;100.00
47897;BME280;39629;51.400;5.494;2023-09-07T04:00:12;101627.59;;;13.35;100.00
47897;BME280;39629;51.400;5.494;2023-09-07T04:05:17;101627.59;;;13.36;100.00
47897;BME280;39629;51.400;5.494;2023-09-07T04:10:21;101631.09;;;13.35;100.00
47897;BME280;39629;51.400;5.494;2023-09-07T04:15:22;101631.13;;;13.27;100.00
47897;BME280;39629;51.400;5.494;2023-09-07T04:20:26;101629.38;;;13.25;100.00
47897;BME280;39629;51.400;5.494;2023-09-07T04:25:31;101627.59;;;13.27;100.00
47897;BME280;39629;51.400;5.494;2023-09-07T04:30:36;101624.06;;;13.25;100.00
47897;BME280;39629;51.400;5.494;2023-09-07T04:35:38;101630.25;;;13.19;100.00
47897;BME280;39629;51.400;5.494;2023-09-07T04:40:42;101624.09;;;13.22;100.00
47897;BME280;39629;51.400;5.494;2023-09-07T04:45:46;101632.91;;;13.21;100.00
47897;BME280;39629;51.400;5.494;2023-09-07T04:50:48;101634.66;;;13.20;100.00
47897;BME280;39629;51.400;5.494;2023-09-07T04:55:51;101636.44;;;13.15;100.00
47897;BME280;39629;51.400;5.494;2023-09-07T05:00:52;101633.78;;;13.12;100.00
47897;BME280;39629;51.400;5.494;2023-09-07T05:05:54;101639.06;;;13.18;100.00
47897;BME280;39629;51.400;5.494;2023-09-07T05:10:58;101639.09;;;13.12;100.00
47897;BME280;39629;51.400;5.494;2023-09-07T05:16:00;101639.94;;;13.12;100.00
47897;BME280;39629;51.400;5.494;2023-09-07T05:21:10;101648.78;;;13.15;100.00
47897;BME280;39629;51.400;5.494;2023-09-07T05:26:13;101645.22;;;13.16;100.00
47897;BME280;39629;51.400;5.494;2023-09-07T05:31:14;101654.03;;;13.21;100.00
47897;BME280;39629;51.400;5.494;2023-09-07T05:36:16;101649.59;;;13.43;100.00
47897;BME280;39629;51.400;5.494;2023-09-07T05:41:19;101653.13;;;13.42;100.00
47897;BME280;39629;51.400;5.494;2023-09-07T05:46:20;101660.13;;;13.68;100.00
47897;BME280;39629;51.400;5.494;2023-09-07T05:51:22;101657.41;;;13.99;100.00
47897;BME280;39629;51.400;5.494;2023-09-07T05:56:25;101659.94;;;14.33;100.00
47897;BME280;39629;51.400;5.494;2023-09-07T06:01:26;101663.22;;;14.69;100.00
47897;BME280;39629;51.400;5.494;2023-09-07T06:06:28;101669.09;;;15.11;100.00
47897;BME280;39629;51.400;5.494;2023-09-07T06:11:31;101667.66;;;15.72;100.00
47897;BME280;39629;51.400;5.494;2023-09-07T06:16:34;101677.06;;;16.01;100.00
47897;BME280;39629;51.400;5.494;2023-09-07T06:21:35;101673.97;;;16.37;100.00
47897;BME280;39629;51.400;5.494;2023-09-07T06:26:38;101677.88;;;16.75;100.00
47897;BME280;39629;51.400;5.494;2023-09-07T06:31:39;101680.03;;;17.06;100.00
47897;BME280;39629;51.400;5.494;2023-09-07T06:36:41;101684.81;;;17.36;100.00
47897;BME280;39629;51.400;5.494;2023-09-07T06:41:45;101690.44;;;17.71;100.00
47897;BME280;39629;51.400;5.494;2023-09-07T06:46:47;101689.09;;;17.95;100.00
47897;BME280;39629;51.400;5.494;2023-09-07T06:51:51;101695.41;;;18.33;100.00
47897;BME280;39629;51.400;5.494;2023-09-07T06:56:54;101693.91;;;18.62;100.00
47897;BME280;39629;51.400;5.494;2023-09-07T07:01:55;101688.78;;;18.92;100.00
47897;BME280;39629;51.400;5.494;2023-09-07T07:07:00;101692.66;;;19.15;100.00
47897;BME280;39629;51.400;5.494;2023-09-07T07:12:06;101692.53;;;19.55;100.00
47897;BME280;39629;51.400;5.494;2023-09-07T07:17:08;101697.41;;;19.72;100.00
47897;BME280;39629;51.400;5.494;2023-09-07T07:22:10;101701.63;;;20.13;100.00
47897;BME280;39629;51.400;5.494;2023-09-07T07:27:13;101702.50;;;20.45;100.00
47897;BME280;39629;51.400;5.494;2023-09-07T07:32:15;101695.19;;;20.80;100.00
47897;BME280;39629;51.400;5.494;2023-09-07T07:37:17;101701.63;;;21.29;100.00
47897;BME280;39629;51.400;5.494;2023-09-07T07:42:20;101698.94;;;21.29;100.00
47897;BME280;39629;51.400;5.494;2023-09-07T07:47:21;101700.97;;;21.98;100.00
47897;BME280;39629;51.400;5.494;2023-09-07T07:52:23;101694.84;;;22.20;100.00
47897;BME280;39629;51.400;5.494;2023-09-07T07:57:27;101697.75;;;22.37;100.00
47897;BME280;39629;51.400;5.494;2023-09-07T08:02:28;101688.59;;;22.65;100.00
47897;BME280;39629;51.400;5.494;2023-09-07T08:07:30;101687.53;;;22.69;100.00
47897;BME280;39629;51.400;5.494;2023-09-07T08:12:32;101687.19;;;22.78;100.00
47897;BME280;39629;51.400;5.494;2023-09-07T08:17:35;101685.50;;;23.41;100.00
47897;BME280;39629;51.400;5.494;2023-09-07T08:22:36;101671.13;;;23.42;100.00
47897;BME280;39629;51.400;5.494;2023-09-07T08:27:49;101671.03;;;23.65;100.00
47897;BME280;39629;51.400;5.494;2023-09-07T08:32:53;101670.28;;;23.62;100.00
47897;BME280;39629;51.400;5.494;2023-09-07T08:37:55;101667.25;;;24.09;100.00
47897;BME280;39629;51.400;5.494;2023-09-07T08:42:59;101666.88;;;23.98;100.00
47897;BME280;39629;51.400;5.494;2023-09-07T08:48:01;101656.78;;;24.22;100.00
47897;BME280;39629;51.400;5.494;2023-09-07T08:53:03;101655.78;;;24.06;100.00
47897;BME280;39629;51.400;5.494;2023-09-07T08:58:06;101660.75;;;24.71;100.00
47897;BME280;39629;51.400;5.494;2023-09-07T09:03:07;101645.13;;;24.96;100.00
47897;BME280;39629;51.400;5.494;2023-09-07T09:08:09;101649.81;;;25.45;100.00
47897;BME280;39629;51.400;5.494;2023-09-07T09:13:12;101646.28;;;25.78;100.00
47897;BME280;39629;51.400;5.494;2023-09-07T09:18:13;101648.69;;;25.67;100.00
47897;BME280;39629;51.400;5.494;2023-09-07T09:23:14;101652.53;;;25.45;100.00
47897;BME280;39629;51.400;5.494;2023-09-07T09:28:17;101643.22;;;26.18;100.00
47897;BME280;39629;51.400;5.494;2023-09-07T09:33:19;101644.94;;;25.87;100.00
47897;BME280;39629;51.400;5.494;2023-09-07T09:38:20;101636.00;;;26.34;100.00
47897;BME280;39629;51.400;5.494;2023-09-07T09:43:23;101637.66;;;26.85;100.00
47897;BME280;39629;51.400;5.494;2023-09-07T09:48:25;101645.56;;;27.49;100.00
47897;BME280;39629;51.400;5.494;2023-09-07T09:53:28;101636.00;;;27.72;100.00
47897;BME280;39629;51.400;5.494;2023-09-07T09:58:31;101626.84;;;27.60;100.00
47897;BME280;39629;51.400;5.494;2023-09-07T10:03:34;101627.44;;;27.94;100.00
47897;BME280;39629;51.400;5.494;2023-09-07T10:08:38;101621.94;;;28.10;100.00
47897;BME280;39629;51.400;5.494;2023-09-07T10:13:40;101616.22;;;28.15;100.00
47897;BME280;39629;51.400;5.494;2023-09-07T10:18:42;101610.84;;;28.28;100.00
47897;BME280;39629;51.400;5.494;2023-09-07T10:23:45;101621.09;;;28.51;100.00
47897;BME280;39629;51.400;5.494;2023-09-07T10:28:59;101616.53;;;28.37;100.00
47897;BME280;39629;51.400;5.494;2023-09-07T10:34:09;101606.09;;;28.73;95.64
47897;BME280;39629;51.400;5.494;2023-09-07T10:39:12;101593.84;;;28.26;94.47
47897;BME280;39629;51.400;5.494;2023-09-07T10:44:15;101598.22;;;28.96;97.69
47897;BME280;39629;51.400;5.494;2023-09-07T10:49:16;101589.50;;;28.65;98.71
47897;BME280;39629;51.400;5.494;2023-09-07T10:54:21;101594.44;;;28.58;95.73
47897;BME280;39629;51.400;5.494;2023-09-07T10:59:24;101589.56;;;28.90;96.42
47897;BME280;39629;51.400;5.494;2023-09-07T11:04:28;101589.34;;;29.06;91.84
47897;BME280;39629;51.400;5.494;2023-09-07T11:09:30;101580.41;;;29.19;89.13
47897;BME280;39629;51.400;5.494;2023-09-07T11:14:32;101566.47;;;28.85;90.92
47897;BME280;39629;51.400;5.494;2023-09-07T11:19:34;101569.41;;;28.95;86.14
47897;BME280;39629;51.400;5.494;2023-09-07T11:24:35;101566.72;;;28.95;82.44
47897;BME280;39629;51.400;5.494;2023-09-07T11:29:38;101571.72;;;29.52;77.74
47897;BME280;39629;51.400;5.494;2023-09-07T11:34:46;101577.38;;;29.36;76.45
47897;BME280;39629;51.400;5.494;2023-09-07T11:39:48;101578.13;;;29.64;71.40
47897;BME280;39629;51.400;5.494;2023-09-07T11:44:51;101570.75;;;29.53;66.45
47897;BME280;39629;51.400;5.494;2023-09-07T11:49:52;101564.31;;;30.17;66.83
47897;BME280;39629;51.400;5.494;2023-09-07T11:54:54;101552.69;;;29.91;64.41
47897;BME280;39629;51.400;5.494;2023-09-07T11:59:56;101548.34;;;29.88;60.75
47897;BME280;39629;51.400;5.494;2023-09-07T12:04:58;101551.50;;;30.19;59.23
47897;BME280;39629;51.400;5.494;2023-09-07T12:10:00;101550.16;;;30.38;59.58
47897;BME280;39629;51.400;5.494;2023-09-07T12:15:04;101543.03;;;30.48;58.54
47897;BME280;39629;51.400;5.494;2023-09-07T12:20:05;101533.78;;;30.51;53.80
47897;BME280;39629;51.400;5.494;2023-09-07T12:25:10;101537.81;;;29.97;56.12
47897;BME280;39629;51.400;5.494;2023-09-07T12:30:13;101532.16;;;30.48;53.25
47897;BME280;39629;51.400;5.494;2023-09-07T12:35:15;101526.91;;;31.05;53.04
47897;BME280;39629;51.400;5.494;2023-09-07T12:40:16;101530.91;;;30.41;52.27
47897;BME280;39629;51.400;5.494;2023-09-07T12:45:19;101531.63;;;30.67;51.91
47897;BME280;39629;51.400;5.494;2023-09-07T12:50:20;101515.31;;;31.14;53.71
47897;BME280;39629;51.400;5.494;2023-09-07T12:55:23;101521.88;;;30.76;51.81
47897;BME280;39629;51.400;5.494;2023-09-07T13:00:26;101521.16;;;30.85;52.76
47897;BME280;39629;51.400;5.494;2023-09-07T13:05:29;101516.28;;;31.02;50.00
47897;BME280;39629;51.400;5.494;2023-09-07T13:10:30;101505.69;;;30.99;50.46
47897;BME280;39629;51.400;5.494;2023-09-07T13:15:33;101506.06;;;31.39;51.56
47897;BME280;39629;51.400;5.494;2023-09-07T13:20:35;101497.91;;;31.39;50.45
47897;BME280;39629;51.400;5.494;2023-09-07T13:25:36;101498.66;;;30.72;51.57
47897;BME280;39629;51.400;5.494;2023-09-07T13:30:39;101488.63;;;31.08;51.98
47897;BME280;39629;51.400;5.494;2023-09-07T13:35:40;101489.50;;;31.31;53.24
47897;BME280;39629;51.400;5.494;2023-09-07T13:40:42;101488.75;;;31.06;51.30
47897;BME280;39629;51.400;5.494;2023-09-07T13:45:44;101480.66;;;30.71;51.47
47897;BME280;39629;51.400;5.494;2023-09-07T13:50:46;101474.25;;;30.83;53.21
47897;BME280;39629;51.400;5.494;2023-09-07T13:55:48;101478.66;;;30.37;52.77
47897;BME280;39629;51.400;5.494;2023-09-07T14:00:51;101475.09;;;30.84;52.60
47897;BME280;39629;51.400;5.494;2023-09-07T14:05:52;101471.56;;;30.95;52.61
47897;BME280;39629;51.400;5.494;2023-09-07T14:10:54;101474.69;;;30.54;54.07
47897;BME280;39629;51.400;5.494;2023-09-07T14:15:57;101468.56;;;30.86;53.61
47897;BME280;39629;51.400;5.494;2023-09-07T14:20:59;101457.03;;;30.60;53.46
47897;BME280;39629;51.400;5.494;2023-09-07T14:26:01;101459.69;;;30.96;52.87
47897;BME280;39629;51.400;5.494;2023-09-07T14:31:04;101465.88;;;31.20;52.62
47897;BME280;39629;51.400;5.494;2023-09-07T14:36:06;101464.69;;;30.77;53.73
47897;BME280;39629;51.400;5.494;2023-09-07T14:41:08;101464.81;;;30.65;56.91
47897;BME280;39629;51.400;5.494;2023-09-07T14:46:12;101465.31;;;30.58;55.34
47897;BME280;39629;51.400;5.494;2023-09-07T14:51:14;101454.56;;;30.33;56.81
47897;BME280;39629;51.400;5.494;2023-09-07T14:56:15;101461.97;;;30.66;56.12
47897;BME280;39629;51.400;5.494;2023-09-07T15:01:18;101459.09;;;30.45;52.08
47897;BME280;39629;51.400;5.494;2023-09-07T15:06:19;101456.72;;;30.40;53.36
47897;BME280;39629;51.400;5.494;2023-09-07T15:11:21;101449.22;;;30.55;56.06
47897;BME280;39629;51.400;5.494;2023-09-07T15:16:24;101448.53;;;30.76;60.03
47897;BME280;39629;51.400;5.494;2023-09-07T15:21:25;101453.28;;;30.14;54.95
47897;BME280;39629;51.400;5.494;2023-09-07T15:26:27;101452.00;;;30.07;56.23
47897;BME280;39629;51.400;5.494;2023-09-07T15:31:30;101443.66;;;30.21;55.88
47897;BME280;39629;51.400;5.494;2023-09-07T15:36:31;101434.34;;;29.77;56.33
47897;BME280;39629;51.400;5.494;2023-09-07T15:41:32;101431.19;;;29.83;57.75
47897;BME280;39629;51.400;5.494;2023-09-07T15:46:35;101434.19;;;29.54;56.99
47897;BME280;39629;51.400;5.494;2023-09-07T15:51:37;101431.06;;;29.48;57.14
47897;BME280;39629;51.400;5.494;2023-09-07T15:56:39;101424.66;;;29.49;58.24
47897;BME280;39629;51.400;5.494;2023-09-07T16:01:42;101421.16;;;29.22;58.94
47897;BME280;39629;51.400;5.494;2023-09-07T16:06:43;101408.69;;;29.20;60.18
47897;BME280;39629;51.400;5.494;2023-09-07T16:11:45;101409.44;;;29.09;57.63
47897;BME280;39629;51.400;5.494;2023-09-07T16:16:47;101406.06;;;29.05;57.84
47897;BME280;39629;51.400;5.494;2023-09-07T16:21:49;101398.84;;;28.80;60.06
47897;BME280;39629;51.400;5.494;2023-09-07T16:26:50;101403.28;;;28.81;59.75
47897;BME280;39629;51.400;5.494;2023-09-07T16:31:53;101406.63;;;28.72;60.14
47897;BME280;39629;51.400;5.494;2023-09-07T16:36:54;101403.28;;;28.55;61.68
47897;BME280;39629;51.400;5.494;2023-09-07T16:41:55;101407.13;;;28.38;62.76
47897;BME280;39629;51.400;5.494;2023-09-07T16:46:58;101399.75;;;28.28;63.65
47897;BME280;39629;51.400;5.494;2023-09-07T16:52:00;101406.34;;;28.23;64.34
47897;BME280;39629;51.400;5.494;2023-09-07T16:57:01;101411.63;;;28.12;64.39
47897;BME280;39629;51.400;5.494;2023-09-07T17:02:04;101399.34;;;27.94;66.35
47897;BME280;39629;51.400;5.494;2023-09-07T17:07:05;101409.03;;;27.83;66.60
47897;BME280;39629;51.400;5.494;2023-09-07T17:12:07;101407.28;;;27.55;69.16
47897;BME280;39629;51.400;5.494;2023-09-07T17:17:09;101406.28;;;27.43;69.21
47897;BME280;39629;51.400;5.494;2023-09-07T17:22:11;101421.75;;;27.27;72.28
47897;BME280;39629;51.400;5.494;2023-09-07T17:27:13;101409.84;;;27.00;74.91
47897;BME280;39629;51.400;5.494;2023-09-07T17:32:16;101406.84;;;26.76;78.64
47897;BME280;39629;51.400;5.494;2023-09-07T17:37:17;101411.00;;;26.37;84.47
47897;BME280;39629;51.400;5.494;2023-09-07T17:42:18;101413.03;;;26.03;94.86
47897;BME280;39629;51.400;5.494;2023-09-07T17:47:22;101408.16;;;25.46;100.00
47897;BME280;39629;51.400;5.494;2023-09-07T17:52:23;101408.56;;;25.06;100.00
47897;BME280;39629;51.400;5.494;2023-09-07T17:57:24;101400.25;;;24.77;100.00
47897;BME280;39629;51.400;5.494;2023-09-07T18:02:27;101408.84;;;24.50;100.00
47897;BME280;39629;51.400;5.494;2023-09-07T18:07:30;101414.19;;;24.15;100.00
47897;BME280;39629;51.400;5.494;2023-09-07T18:12:31;101414.09;;;23.63;100.00
47897;BME280;39629;51.400;5.494;2023-09-07T18:17:34;101426.78;;;23.21;100.00
47897;BME280;39629;51.400;5.494;2023-09-07T18:22:35;101420.38;;;23.05;100.00
47897;BME280;39629;51.400;5.494;2023-09-07T18:27:37;101421.88;;;22.91;100.00
47897;BME280;39629;51.400;5.494;2023-09-07T18:32:39;101414.28;;;22.80;100.00
47897;BME280;39629;51.400;5.494;2023-09-07T18:37:41;101424.50;;;22.52;100.00
47897;BME280;39629;51.400;5.494;2023-09-07T18:42:45;101432.00;;;22.23;100.00
47897;BME280;39629;51.400;5.494;2023-09-07T18:47:48;101437.31;;;22.02;100.00
47897;BME280;39629;51.400;5.494;2023-09-07T18:52:49;101431.34;;;21.94;100.00
47897;BME280;39629;51.400;5.494;2023-09-07T18:57:50;101430.72;;;21.87;100.00
47897;BME280;39629;51.400;5.494;2023-09-07T19:02:53;101429.78;;;21.66;100.00
47897;BME280;39629;51.400;5.494;2023-09-07T19:07:54;101433.03;;;21.52;100.00
47897;BME280;39629;51.400;5.494;2023-09-07T19:12:56;101435.41;;;21.36;100.00
47897;BME280;39629;51.400;5.494;2023-09-07T19:17:59;101429.72;;;21.22;100.00
47897;BME280;39629;51.400;5.494;2023-09-07T19:23:00;101434.06;;;21.01;100.00
47897;BME280;39629;51.400;5.494;2023-09-07T19:28:01;101427.25;;;20.92;100.00
47897;BME280;39629;51.400;5.494;2023-09-07T19:33:04;101438.34;;;20.81;100.00
47897;BME280;39629;51.400;5.494;2023-09-07T19:38:07;101433.88;;;20.56;100.00
47897;BME280;39629;51.400;5.494;2023-09-07T19:43:08;101438.97;;;20.37;100.00
47897;BME280;39629;51.400;5.494;2023-09-07T19:48:11;101437.44;;;20.30;100.00
47897;BME280;39629;51.400;5.494;2023-09-07T19:53:12;101444.31;;;20.37;100.00
47897;BME280;39629;51.400;5.494;2023-09-07T19:58:13;101437.31;;;20.33;100.00
47897;BME280;39629;51.400;5.494;2023-09-07T20:03:16;101444.47;;;20.33;100.00
47897;BME280;39629;51.400;5.494;2023-09-07T20:08:18;101436.28;;;20.37;100.00
47897;BME280;39629;51.400;5.494;2023-09-07T20:13:19;101440.19;;;20.54;100.00
47897;BME280;39629;51.400;5.494;2023-09-07T20:18:22;101440.31;;;20.22;100.00
47897;BME280;39629;51.400;5.494;2023-09-07T20:23:23;101439.69;;;20.16;100.00
47897;BME280;39629;51.400;5.494;2023-09-07T20:28:24;101442.03;;;20.25;100.00
47897;BME280;39629;51.400;5.494;2023-09-07T20:33:27;101449.47;;;20.15;100.00
47897;BME280;39629;51.400;5.494;2023-09-07T20:38:28;101438.72;;;19.90;100.00
47897;BME280;39629;51.400;5.494;2023-09-07T20:43:30;101445.13;;;19.84;100.00
47897;BME280;39629;51.400;5.494;2023-09-07T20:48:33;101449.47;;;19.60;100.00
47897;BME280;39629;51.400;5.494;2023-09-07T20:53:34;101440.25;;;19.40;100.00
47897;BME280;39629;51.400;5.494;2023-09-07T20:58:36;101444.28;;;19.24;100.00
47897;BME280;39629;51.400;5.494;2023-09-07T21:03:38;101445.47;;;18.81;100.00
47897;BME280;39629;51.400;5.494;2023-09-07T21:08:40;101435.34;;;18.62;100.00
47897;BME280;39629;51.400;5.494;2023-09-07T21:13:41;101447.75;;;18.63;100.00
47897;BME280;39629;51.400;5.494;2023-09-07T21:18:44;101443.09;;;18.71;100.00
47897;BME280;39629;51.400;5.494;2023-09-07T21:23:45;101453.16;;;18.60;100.00
47897;BME280;39629;51.400;5.494;2023-09-07T21:28:46;101457.94;;;18.10;100.00
47897;BME280;39629;51.400;5.494;2023-09-07T21:33:49;101463.84;;;17.85;100.00
47897;BME280;39629;51.400;5.494;2023-09-07T21:38:50;101458.16;;;18.00;100.00
47897;BME280;39629;51.400;5.494;2023-09-07T21:43:52;101459.19;;;17.96;100.00
47897;BME280;39629;51.400;5.494;2023-09-07T21:48:55;101449.25;;;18.01;100.00
47897;BME280;39629;51.400;5.494;2023-09-07T21:53:56;101453.84;;;17.95;100.00
47897;BME280;39629;51.400;5.494;2023-09-07T21:58:59;101460.41;;;17.41;100.00
47897;BME280;39629;51.400;5.494;2023-09-07T22:04:02;101456.00;;;17.36;100.00
47897;BME280;39629;51.400;5.494;2023-09-07T22:09:04;101449.72;;;17.44;100.00
47897;BME280;39629;51.400;5.494;2023-09-07T22:14:05;101456.38;;;17.63;100.00
47897;BME280;39629;51.400;5.494;2023-09-07T22:19:08;101441.38;;;17.59;100.00
47897;BME280;39629;51.400;5.494;2023-09-07T22:24:09;101438.50;;;17.26;100.00
47897;BME280;39629;51.400;5.494;2023-09-07T22:29:11;101441.88;;;17.34;100.00
47897;BME280;39629;51.400;5.494;2023-09-07T22:34:14;101437.34;;;17.41;100.00
47897;BME280;39629;51.400;5.494;2023-09-07T22:39:15;101433.03;;;17.34;100.00
47897;BME280;39629;51.400;5.494;2023-09-07T22:44:17;101432.06;;;17.36;100.00
47897;BME280;39629;51.400;5.494;2023-09-07T22:49:20;101432.97;;;17.37;100.00
47897;BME280;39629;51.400;5.494;2023-09-07T22:54:21;101437.91;;;17.13;100.00
47897;BME280;39629;51.400;5.494;2023-09-07T22:59:23;101437.38;;;16.94;100.00
47897;BME280;39629;51.400;5.494;2023-09-07T23:04:25;101439.47;;;16.78;100.00
47897;BME280;39629;51.400;5.494;2023-09-07T23:09:27;101438.59;;;16.78;100.00
47897;BME280;39629;51.400;5.494;2023-09-07T23:14:30;101430.44;;;16.87;100.00
47897;BME280;39629;51.400;5.494;2023-09-07T23:19:33;101429.25;;;17.03;100.00
47897;BME280;39629;51.400;5.494;2023-09-07T23:24:34;101428.69;;;16.86;100.00
47897;BME280;39629;51.400;5.494;2023-09-07T23:29:36;101425.53;;;16.65;100.00
47897;BME280;39629;51.400;5.494;2023-09-07T23:34:41;101438.78;;;16.67;100.00
47897;BME280;39629;51.400;5.494;2023-09-07T23:39:42;101436.44;;;16.50;100.00
47897;BME280;39629;51.400;5.494;2023-09-07T23:44:43;101435.72;;;16.40;100.00
47897;BME280;39629;51.400;5.494;2023-09-07T23:49:46;101438.47;;;16.35;100.00
47897;BME280;39629;51.400;5.494;2023-09-07T23:54:47;101444.09;;;16.14;100.00
47897;BME280;39629;51.400;5.494;2023-09-07T23:59:49;101446.13;;;15.99;100.00
